Time;durP1;ratioP1;P1;durP2;ratioP2;P2;SDS_P1;SDS_P2;PMS_P1;PMS_P2;Temp;Humidity;BMP_temperature;BMP_pressure;BME280_temperature;BME280_humidity;BME280_pressure;Samples;Min_cycle;Max_cycle;Signal;HPM_P1;HPM_P2
2023/01/07 00:00:47;;;;;;;;;;;;;;;-146.02;100.00;65310.94;5055393;28;19959;-69
2023/01/07 00:03:15;;;;;;;;;;;;;;;-146.02;100.00;65310.94;5069574;28;20385;-68
2023/01/07 00:05:41;;;;;;;;;;;;;;;-146.02;100.00;65310.94;5057523;28;20292;-70
2023/01/07 00:08:06;;;;;;;;;;;;;;;-146.02;100.00;65310.94;5074028;28;19912;-69
2023/01/07 00:10:32;;;;;;;;;;;;;;;-146.02;100.00;65310.94;5074507;28;19916;-69
2023/01/07 00:12:58;;;;;;;;;;;;;;;-146.02;100.00;65310.94;5075646;28;19916;-69
2023/01/07 00:15:23;;;;;;;;;;;;;;;-146.02;100.00;65310.94;5070828;28;19923;-69
2023/01/07 00:17:48;;;;;;;;;;;;;;;-146.02;100.00;65310.94;5070077;28;20436;-69
2023/01/07 00:20:13;;;;;;;;;;;;;;;-146.02;100.00;65310.94;5060029;28;19920;-69
2023/01/07 00:22:39;;;;;;;;;;;;;;;-146.02;100.00;65310.94;5056091;28;20292;-70
2023/01/07 00:25:04;;;;;;;;;;;;;;;-146.02;100.00;65310.94;5074779;28;19912;-68
2023/01/07 00:27:30;;;;;;;;;;;;;;;-146.02;100.00;65310.94;5072524;28;19917;-70
2023/01/07 00:29:56;;;;;;;;;;;;;;;-146.02;100.00;65310.94;5063574;28;19921;-70
2023/01/07 00:32:45;;;;;;;;;;;;;;;-146.02;100.00;65310.94;5059062;28;20312;-70
2023/01/07 00:35:20;;;;;;;;;;;;;;;-146.02;100.00;65310.94;5060358;28;19920;-69
2023/01/07 00:37:48;;;;;;;;;;;;;;;-146.02;100.00;65310.94;5054567;28;19921;-70
2023/01/07 00:40:14;;;;;;;;;;;;;;;-146.02;100.00;65310.94;5062206;28;19920;-71
2023/01/07 00:42:55;;;;;;;;;;;;;;;-146.02;100.00;65310.94;5074009;28;19926;-70
2023/01/07 00:45:21;;;;;;;;;;;;;;;-146.02;100.00;65310.94;5072523;28;19912;-69
2023/01/07 00:47:47;;;;;;;;;;;;;;;-146.02;100.00;65310.94;5074235;28;19974;-70
2023/01/07 00:50:12;;;;;;;;;;;;;;;-146.02;100.00;65310.94;5074276;28;19912;-68
2023/01/07 00:52:37;;;;;;;;;;;;;;;-146.02;100.00;65310.94;5072401;28;19924;-68
2023/01/07 00:55:03;;;;;;;;;;;;;;;-146.02;100.00;65310.94;5065316;28;19963;-68
2023/01/07 00:57:28;;;;;;;;;;;;;;;-146.02;100.00;65310.94;5060271;28;19925;-68
2023/01/07 00:59:53;;;;;;;;;;;;;;;-146.02;100.00;65310.94;5073937;28;20281;-68
2023/01/07 01:02:19;;;;;;;;;;;;;;;-146.02;100.00;65310.94;5074905;28;20312;-68
2023/01/07 01:04:44;;;;;;;;;;;;;;;-146.02;100.00;65310.94;5073171;28;20003;-68
2023/01/07 01:07:09;;;;;;;;;;;;;;;-146.02;100.00;65310.94;5074864;28;19912;-69
2023/01/07 01:09:34;;;;;;;;;;;;;;;-146.02;100.00;65310.94;5074108;28;19917;-69
2023/01/07 01:12:00;;;;;;;;;;;;;;;-146.02;100.00;65310.94;5074886;28;20391;-69
2023/01/07 01:14:25;;;;;;;;;;;;;;;-146.02;100.00;65310.94;5074598;28;19920;-69
2023/01/07 01:16:50;;;;;;;;;;;;;;;-146.02;100.00;65310.94;5071167;28;20011;-71
2023/01/07 01:19:16;;;;;;;;;;;;;;;-146.02;100.00;65310.94;5054899;28;19923;-70
2023/01/07 01:21:41;;;;;;;;;;;;;;;-146.02;100.00;65310.94;5049424;28;19920;-71
2023/01/07 01:24:06;;;;;;;;;;;;;;;-146.02;100.00;65310.94;5064264;28;19960;-71
2023/01/07 01:26:31;;;;;;;;;;;;;;;-146.02;100.00;65310.94;5064763;28;19920;-71
2023/01/07 01:28:57;;;;;;;;;;;;;;;-146.02;100.00;65310.94;5063550;28;19920;-71
2023/01/07 01:31:22;;;;;;;;;;;;;;;-146.02;100.00;65310.94;5063312;28;19961;-71
2023/01/07 01:33:47;;;;;;;;;;;;;;;-146.02;100.00;65310.94;5066360;28;19912;-71
2023/01/07 01:36:13;;;;;;;;;;;;;;;-146.02;100.00;65310.94;5064976;28;20530;-71
2023/01/07 01:38:39;;;;;;;;;;;;;;;-146.02;100.00;65310.94;5062003;28;19935;-71
2023/01/07 01:41:05;;;;;;;;;;;;;;;-146.02;100.00;65310.94;5064714;28;19916;-71
2023/01/07 01:43:32;;;;;;;;;;;;;;;-146.02;100.00;65310.94;5060534;28;20438;-71
2023/01/07 01:46:00;;;;;;;;;;;;;;;-146.02;100.00;65310.94;5055606;28;20365;-70
2023/01/07 01:48:27;;;;;;;;;;;;;;;-146.02;100.00;65310.94;5070340;28;19916;-70
2023/01/07 01:50:52;;;;;;;;;;;;;;;-146.02;100.00;65310.94;5071845;28;20289;-70
2023/01/07 01:53:20;;;;;;;;;;;;;;;-146.02;100.00;65310.94;5070711;28;19923;-70
2023/01/07 01:56:06;;;;;;;;;;;;;;;-146.02;100.00;65310.94;5071927;28;19955;-70
2023/01/07 01:58:35;;;;;;;;;;;;;;;-146.02;100.00;65310.94;5057615;28;20003;-71
2023/01/07 02:01:00;;;;;;;;;;;;;;;-146.02;100.00;65310.94;5071967;28;19939;-71
2023/01/07 02:03:28;;;;;;;;;;;;;;;-146.02;100.00;65310.94;5072637;28;19917;-70
2023/01/07 02:05:54;;;;;;;;;;;;;;;-146.02;100.00;65310.94;5063749;28;19924;-70
2023/01/07 02:08:22;;;;;;;;;;;;;;;-146.02;100.00;65310.94;5071547;28;19912;-70
2023/01/07 02:10:53;;;;;;;;;;;;;;;-146.02;100.00;65310.94;5071948;28;19951;-70
2023/01/07 02:13:34;;;;;;;;;;;;;;;-146.02;100.00;65310.94;5072809;28;19913;-70
2023/01/07 02:16:19;;;;;;;;;;;;;;;-146.02;100.00;65310.94;5054632;28;19928;-70
2023/01/07 02:18:51;;;;;;;;;;;;;;;-146.02;100.00;65310.94;5066534;28;19912;-70
2023/01/07 02:21:27;;;;;;;;;;;;;;;-146.02;100.00;65310.94;5072070;28;19942;-70
2023/01/07 02:24:01;;;;;;;;;;;;;;;-146.02;100.00;65310.94;5057194;28;20012;-70
2023/01/07 02:26:30;;;;;;;;;;;;;;;-146.02;100.00;65310.94;5076517;28;20003;-70
2023/01/07 02:29:18;;;;;;;;;;;;;;;-146.02;100.00;65310.94;5088442;28;20339;-70
2023/01/07 02:32:12;;;;;;;;;;;;;;;-146.02;100.00;65310.94;5051791;28;19952;-70
2023/01/07 02:34:46;;;;;;;;;;;;;;;-146.02;100.00;65310.94;4981158;28;19922;-70
2023/01/07 02:37:24;;;;;;;;;;;;;;;-146.02;100.00;65310.94;5070125;28;19912;-70
2023/01/07 02:39:55;;;;;;;;;;;;;;;-146.02;100.00;65310.94;5072036;28;19920;-70
2023/01/07 02:42:26;;;;;;;;;;;;;;;-146.02;100.00;65310.94;5068684;28;20042;-70
2023/01/07 02:45:01;;;;;;;;;;;;;;;-146.02;100.00;65310.94;5057158;28;20261;-70
2023/01/07 02:47:28;;;;;;;;;;;;;;;-146.02;100.00;65310.94;5058720;28;20336;-70
2023/01/07 02:49:54;;;;;;;;;;;;;;;-146.02;100.00;65310.94;5072004;28;19927;-70
2023/01/07 02:52:23;;;;;;;;;;;;;;;-146.02;100.00;65310.94;5070888;28;19917;-70
2023/01/07 02:54:59;;;;;;;;;;;;;;;-146.02;100.00;65310.94;5070688;28;19944;-70
2023/01/07 02:57:43;;;;;;;;;;;;;;;-146.02;100.00;65310.94;5075467;28;20416;-69
2023/01/07 03:00:09;;;;;;;;;;;;;;;-146.02;100.00;65310.94;5074520;28;19916;-69
2023/01/07 03:02:52;;;;;;;;;;;;;;;-146.02;100.00;65310.94;5075953;28;20411;-69
2023/01/07 03:05:38;;;;;;;;;;;;;;;-146.02;100.00;65310.94;5061674;28;19920;-70
2023/01/07 03:08:22;;;;;;;;;;;;;;;-146.02;100.00;65310.94;5074273;28;19912;-70
2023/01/07 03:10:57;;;;;;;;;;;;;;;-146.02;100.00;65310.94;5075315;28;19912;-70
2023/01/07 03:13:24;;;;;;;;;;;;;;;-146.02;100.00;65310.94;5073468;28;20037;-70
2023/01/07 03:15:52;;;;;;;;;;;;;;;-146.02;100.00;65310.94;5075337;28;19916;-70
2023/01/07 03:18:23;;;;;;;;;;;;;;;-146.02;100.00;65310.94;5074256;28;20399;-71
2023/01/07 03:20:52;;;;;;;;;;;;;;;-146.02;100.00;65310.94;5055494;28;19916;-69
2023/01/07 03:23:22;;;;;;;;;;;;;;;-146.02;100.00;65310.94;5055381;28;19919;-69
2023/01/07 03:25:50;;;;;;;;;;;;;;;-146.02;100.00;65310.94;5071511;28;19966;-69
2023/01/07 03:28:18;;;;;;;;;;;;;;;-146.02;100.00;65310.94;5077996;28;19923;-69
2023/01/07 03:30:45;;;;;;;;;;;;;;;-146.02;100.00;65310.94;5082438;28;20398;-71
2023/01/07 03:33:13;;;;;;;;;;;;;;;-146.02;100.00;65310.94;5075909;28;19913;-71
2023/01/07 03:35:40;;;;;;;;;;;;;;;-146.02;100.00;65310.94;5075087;28;19917;-71
2023/01/07 03:38:06;;;;;;;;;;;;;;;-146.02;100.00;65310.94;5073451;28;19916;-71
2023/01/07 03:40:32;;;;;;;;;;;;;;;-146.02;100.00;65310.94;5074369;28;19919;-71
2023/01/07 03:43:00;;;;;;;;;;;;;;;-146.02;100.00;65310.94;5067610;28;20268;-71
2023/01/07 03:45:26;;;;;;;;;;;;;;;-146.02;100.00;65310.94;5057093;28;19951;-71
2023/01/07 03:47:52;;;;;;;;;;;;;;;-146.02;100.00;65310.94;5075527;28;20284;-71
2023/01/07 03:50:18;;;;;;;;;;;;;;;-146.02;100.00;65310.94;5073751;28;19912;-71
2023/01/07 03:52:44;;;;;;;;;;;;;;;-146.02;100.00;65310.94;5075251;28;20289;-71
2023/01/07 03:55:09;;;;;;;;;;;;;;;-146.02;100.00;65310.94;5072208;28;19924;-70
2023/01/07 03:57:35;;;;;;;;;;;;;;;-146.02;100.00;65310.94;5074378;28;19939;-70
2023/01/07 04:00:00;;;;;;;;;;;;;;;-146.02;100.00;65310.94;5074768;28;19938;-70
2023/01/07 04:02:26;;;;;;;;;;;;;;;-146.02;100.00;65310.94;5062154;28;20049;-70
2023/01/07 04:04:52;;;;;;;;;;;;;;;-146.02;100.00;65310.94;5054220;28;19917;-70
2023/01/07 04:07:18;;;;;;;;;;;;;;;-146.02;100.00;65310.94;5059485;28;19920;-71
2023/01/07 04:09:45;;;;;;;;;;;;;;;-146.02;100.00;65310.94;5073190;28;19912;-71
2023/01/07 04:12:11;;;;;;;;;;;;;;;-146.02;100.00;65310.94;5075053;28;20378;-70
2023/01/07 04:14:36;;;;;;;;;;;;;;;-146.02;100.00;65310.94;5069334;28;19916;-70
2023/01/07 04:17:02;;;;;;;;;;;;;;;-146.02;100.00;65310.94;5074426;28;19913;-70
2023/01/07 04:19:27;;;;;;;;;;;;;;;-146.02;100.00;65310.94;5074672;28;20007;-70
2023/01/07 04:21:52;;;;;;;;;;;;;;;-146.02;100.00;65310.94;5072601;28;19938;-70
2023/01/07 04:24:18;;;;;;;;;;;;;;;-146.02;100.00;65310.94;5073390;28;19992;-71
2023/01/07 04:26:43;;;;;;;;;;;;;;;-146.02;100.00;65310.94;5073360;28;19962;-71
2023/01/07 04:29:09;;;;;;;;;;;;;;;-146.02;100.00;65310.94;5083450;28;20346;-71
2023/01/07 04:31:34;;;;;;;;;;;;;;;-146.02;100.00;65310.94;5064735;28;20021;-71
2023/01/07 04:34:00;;;;;;;;;;;;;;;-146.02;100.00;65310.94;5072299;28;19912;-71
2023/01/07 04:36:25;;;;;;;;;;;;;;;-146.02;100.00;65310.94;5073669;28;19959;-71
2023/01/07 04:38:50;;;;;;;;;;;;;;;-146.02;100.00;65310.94;5072857;28;20419;-72
2023/01/07 04:41:16;;;;;;;;;;;;;;;-146.02;100.00;65310.94;5053446;28;20737;-72
2023/01/07 04:43:42;;;;;;;;;;;;;;;-146.02;100.00;65310.94;5057657;28;19970;-72
2023/01/07 04:46:08;;;;;;;;;;;;;;;-146.02;100.00;65310.94;5068399;28;19948;-72
2023/01/07 04:48:33;;;;;;;;;;;;;;;-146.02;100.00;65310.94;5074584;28;20269;-72
2023/01/07 04:50:58;;;;;;;;;;;;;;;-146.02;100.00;65310.94;5073032;28;19912;-72
2023/01/07 04:53:23;;;;;;;;;;;;;;;-146.02;100.00;65310.94;5073925;28;19912;-72
2023/01/07 04:55:49;;;;;;;;;;;;;;;-146.02;100.00;65310.94;5072700;28;19925;-72
2023/01/07 04:58:14;;;;;;;;;;;;;;;-146.02;100.00;65310.94;5071926;28;19912;-72
2023/01/07 05:00:39;;;;;;;;;;;;;;;-146.02;100.00;65310.94;5073811;28;19963;-72
2023/01/07 05:03:05;;;;;;;;;;;;;;;-146.02;100.00;65310.94;5042472;28;20293;-71
2023/01/07 05:05:31;;;;;;;;;;;;;;;-146.02;100.00;65310.94;5056227;28;20372;-71
2023/01/07 05:07:56;;;;;;;;;;;;;;;-146.02;100.00;65310.94;5073114;28;19919;-71
2023/01/07 05:10:21;;;;;;;;;;;;;;;-146.02;100.00;65310.94;5072622;28;19965;-71
2023/01/07 05:12:47;;;;;;;;;;;;;;;-146.02;100.00;65310.94;5074053;28;19920;-71
2023/01/07 05:15:12;;;;;;;;;;;;;;;-146.02;100.00;65310.94;5072481;28;19977;-71
2023/01/07 05:17:37;;;;;;;;;;;;;;;-146.02;100.00;65310.94;5073327;28;19912;-71
2023/01/07 05:20:03;;;;;;;;;;;;;;;-146.02;100.00;65310.94;5074186;28;19912;-71
2023/01/07 05:22:29;;;;;;;;;;;;;;;-146.02;100.00;65310.94;5074697;28;19919;-71
2023/01/07 05:24:54;;;;;;;;;;;;;;;-146.02;100.00;65310.94;5077035;28;20408;-71
2023/01/07 05:27:19;;;;;;;;;;;;;;;-146.02;100.00;65310.94;5074146;28;20075;-71
2023/01/07 05:29:45;;;;;;;;;;;;;;;-146.02;100.00;65310.94;5062961;28;19920;-71
2023/01/07 05:32:10;;;;;;;;;;;;;;;-146.02;100.00;65310.94;5053752;28;19919;-71
2023/01/07 05:34:35;;;;;;;;;;;;;;;-146.02;100.00;65310.94;5071448;28;20318;-71
2023/01/07 05:37:00;;;;;;;;;;;;;;;-146.02;100.00;65310.94;5061229;28;19917;-71
2023/01/07 05:39:26;;;;;;;;;;;;;;;-146.02;100.00;65310.94;5061750;28;19917;-71
2023/01/07 05:41:51;;;;;;;;;;;;;;;-146.02;100.00;65310.94;5075241;28;19974;-71
2023/01/07 05:44:16;;;;;;;;;;;;;;;-146.02;100.00;65310.94;5053091;28;20020;-71
2023/01/07 05:46:42;;;;;;;;;;;;;;;-146.02;100.00;65310.94;5052122;28;20435;-71
2023/01/07 05:49:07;;;;;;;;;;;;;;;-146.02;100.00;65310.94;5053495;28;19923;-72
2023/01/07 05:51:33;;;;;;;;;;;;;;;-146.02;100.00;65310.94;5052615;28;20270;-71
2023/01/07 05:53:58;;;;;;;;;;;;;;;-146.02;100.00;65310.94;5052077;28;19967;-71
2023/01/07 05:56:23;;;;;;;;;;;;;;;-146.02;100.00;65310.94;5051241;28;19928;-71
2023/01/07 05:58:49;;;;;;;;;;;;;;;-146.02;100.00;65310.94;5050860;28;19917;-71
2023/01/07 06:01:14;;;;;;;;;;;;;;;-146.02;100.00;65310.94;5052963;28;20641;-71
2023/01/07 06:03:39;;;;;;;;;;;;;;;-146.02;100.00;65310.94;5049599;28;20265;-71
2023/01/07 06:06:07;;;;;;;;;;;;;;;-146.02;100.00;65310.94;5051600;28;20372;-71
2023/01/07 06:08:33;;;;;;;;;;;;;;;-146.02;100.00;65310.94;5051824;28;19913;-71
2023/01/07 06:11:00;;;;;;;;;;;;;;;-146.02;100.00;65310.94;5050581;28;20266;-71
2023/01/07 06:13:25;;;;;;;;;;;;;;;-146.02;100.00;65310.94;5051870;28;19916;-71
2023/01/07 06:15:50;;;;;;;;;;;;;;;-146.02;100.00;65310.94;5051719;28;20395;-71
2023/01/07 06:18:15;;;;;;;;;;;;;;;-146.02;100.00;65310.94;5052503;28;20434;-71
2023/01/07 06:20:41;;;;;;;;;;;;;;;-146.02;100.00;65310.94;5052661;28;19913;-71
2023/01/07 06:23:06;;;;;;;;;;;;;;;-146.02;100.00;65310.94;5050957;28;20353;-71
2023/01/07 06:25:34;;;;;;;;;;;;;;;-146.02;100.00;65310.94;5036753;28;19959;-72
2023/01/07 06:28:00;;;;;;;;;;;;;;;-146.02;100.00;65310.94;5059488;28;20349;-72
2023/01/07 06:30:25;;;;;;;;;;;;;;;-146.02;100.00;65310.94;5044817;28;20362;-71
2023/01/07 06:32:51;;;;;;;;;;;;;;;-146.02;100.00;65310.94;5038254;28;19917;-71
2023/01/07 06:35:16;;;;;;;;;;;;;;;-146.02;100.00;65310.94;5049838;28;19921;-71
2023/01/07 06:37:41;;;;;;;;;;;;;;;-146.02;100.00;65310.94;5050986;28;20330;-71
2023/01/07 06:40:07;;;;;;;;;;;;;;;-146.02;100.00;65310.94;5050145;28;19923;-71
2023/01/07 06:42:32;;;;;;;;;;;;;;;-146.02;100.00;65310.94;5052041;28;19921;-71
2023/01/07 06:44:58;;;;;;;;;;;;;;;-146.02;100.00;65310.94;5072497;28;20003;-71
2023/01/07 06:47:24;;;;;;;;;;;;;;;-146.02;100.00;65310.94;5066232;28;19920;-71
2023/01/07 06:49:50;;;;;;;;;;;;;;;-146.02;100.00;65310.94;5071892;28;19920;-72
2023/01/07 06:52:15;;;;;;;;;;;;;;;-146.02;100.00;65310.94;5072283;28;19917;-72
2023/01/07 06:54:40;;;;;;;;;;;;;;;-146.02;100.00;65310.94;5052519;28;19952;-72
2023/01/07 06:57:05;;;;;;;;;;;;;;;-146.02;100.00;65310.94;5053109;28;19916;-72
2023/01/07 06:59:31;;;;;;;;;;;;;;;-146.02;100.00;65310.94;5070227;28;20541;-72
2023/01/07 07:01:56;;;;;;;;;;;;;;;-146.02;100.00;65310.94;5069652;28;19912;-72
2023/01/07 07:04:21;;;;;;;;;;;;;;;-146.02;100.00;65310.94;5053276;28;20372;-72
2023/01/07 07:06:47;;;;;;;;;;;;;;;-146.02;100.00;65310.94;5069693;28;19927;-72
2023/01/07 07:09:12;;;;;;;;;;;;;;;-146.02;100.00;65310.94;5072263;28;19919;-72
2023/01/07 07:11:38;;;;;;;;;;;;;;;-146.02;100.00;65310.94;5069894;28;19917;-72
2023/01/07 07:14:03;;;;;;;;;;;;;;;-146.02;100.00;65310.94;5068892;28;19919;-72
2023/01/07 07:16:28;;;;;;;;;;;;;;;-146.02;100.00;65310.94;5051784;28;19917;-72
2023/01/07 07:18:54;;;;;;;;;;;;;;;-146.02;100.00;65310.94;5070494;28;19912;-72
2023/01/07 07:21:19;;;;;;;;;;;;;;;-146.02;100.00;65310.94;5071652;28;19932;-72
2023/01/07 07:23:45;;;;;;;;;;;;;;;-146.02;100.00;65310.94;5070511;28;20387;-71
2023/01/07 07:26:10;;;;;;;;;;;;;;;-146.02;100.00;65310.94;5070808;28;20011;-71
2023/01/07 07:28:36;;;;;;;;;;;;;;;-146.02;100.00;65310.94;5065323;28;20269;-71
2023/01/07 07:31:01;;;;;;;;;;;;;;;-146.02;100.00;65310.94;5068276;28;19913;-72
2023/01/07 07:33:26;;;;;;;;;;;;;;;-146.02;100.00;65310.94;5052625;28;19935;-71
2023/01/07 07:35:53;;;;;;;;;;;;;;;-146.02;100.00;65310.94;5069323;28;20003;-71
2023/01/07 07:38:18;;;;;;;;;;;;;;;-146.02;100.00;65310.94;5072512;28;20356;-71
2023/01/07 07:40:44;;;;;;;;;;;;;;;-146.02;100.00;65310.94;5073812;28;19963;-71
2023/01/07 07:43:09;;;;;;;;;;;;;;;-146.02;100.00;65310.94;5073847;28;20039;-71
2023/01/07 07:45:35;;;;;;;;;;;;;;;-146.02;100.00;65310.94;5075672;28;19976;-71
2023/01/07 07:48:00;;;;;;;;;;;;;;;-146.02;100.00;65310.94;5072565;28;19919;-71
2023/01/07 07:50:26;;;;;;;;;;;;;;;-146.02;100.00;65310.94;5072785;28;20293;-71
2023/01/07 07:52:51;;;;;;;;;;;;;;;-146.02;100.00;65310.94;5070851;28;19913;-71
2023/01/07 07:55:16;;;;;;;;;;;;;;;-146.02;100.00;65310.94;5057161;28;20338;-71
2023/01/07 07:57:42;;;;;;;;;;;;;;;-146.02;100.00;65310.94;5074242;28;19919;-71
2023/01/07 08:00:08;;;;;;;;;;;;;;;-146.02;100.00;65310.94;5073854;28;19912;-71
2023/01/07 08:02:33;;;;;;;;;;;;;;;-146.02;100.00;65310.94;5063606;28;20539;-71
2023/01/07 08:04:58;;;;;;;;;;;;;;;-146.02;100.00;65310.94;5038257;28;19920;-71
2023/01/07 08:07:25;;;;;;;;;;;;;;;-146.02;100.00;65310.94;5068177;28;19994;-71
2023/01/07 08:09:51;;;;;;;;;;;;;;;-146.02;100.00;65310.94;5074537;28;20357;-71
2023/01/07 08:12:16;;;;;;;;;;;;;;;-146.02;100.00;65310.94;5074063;28;19976;-71
2023/01/07 08:14:41;;;;;;;;;;;;;;;-146.02;100.00;65310.94;5072970;28;19942;-71
2023/01/07 08:17:07;;;;;;;;;;;;;;;-146.02;100.00;65310.94;5073161;28;20352;-70
2023/01/07 08:19:32;;;;;;;;;;;;;;;-146.02;100.00;65310.94;5073503;28;19916;-70
2023/01/07 08:21:58;;;;;;;;;;;;;;;-146.02;100.00;65310.94;5073653;28;19919;-70
2023/01/07 08:24:23;;;;;;;;;;;;;;;-146.02;100.00;65310.94;5053789;28;19916;-72
2023/01/07 08:26:49;;;;;;;;;;;;;;;-146.02;100.00;65310.94;5071968;28;20303;-72
2023/01/07 08:29:14;;;;;;;;;;;;;;;-146.02;100.00;65310.94;5065104;28;19989;-72
2023/01/07 08:31:40;;;;;;;;;;;;;;;-146.02;100.00;65310.94;5071685;28;20369;-72
2023/01/07 08:34:05;;;;;;;;;;;;;;;-146.02;100.00;65310.94;5073691;28;20418;-72
2023/01/07 08:36:30;;;;;;;;;;;;;;;-146.02;100.00;65310.94;5044518;28;19928;-72
2023/01/07 08:38:56;;;;;;;;;;;;;;;-146.02;100.00;65310.94;5073200;28;20003;-72
2023/01/07 08:41:22;;;;;;;;;;;;;;;-146.02;100.00;65310.94;5074518;28;20283;-72
2023/01/07 08:43:47;;;;;;;;;;;;;;;-146.02;100.00;65310.94;5072518;28;20289;-72
2023/01/07 08:46:12;;;;;;;;;;;;;;;-146.02;100.00;65310.94;5039107;28;20125;-72
2023/01/07 08:48:39;;;;;;;;;;;;;;;-146.02;100.00;65310.94;5073309;28;19916;-72
2023/01/07 08:51:05;;;;;;;;;;;;;;;-146.02;100.00;65310.94;5057090;28;19975;-73
2023/01/07 08:53:30;;;;;;;;;;;;;;;-146.02;100.00;65310.94;5066071;28;19912;-72
2023/01/07 08:55:55;;;;;;;;;;;;;;;-146.02;100.00;65310.94;5065607;28;20288;-72
2023/01/07 08:58:21;;;;;;;;;;;;;;;-146.02;100.00;65310.94;5062859;28;20342;-72
2023/01/07 09:00:46;;;;;;;;;;;;;;;-146.02;100.00;65310.94;5066166;28;19912;-72
2023/01/07 09:03:13;;;;;;;;;;;;;;;-146.02;100.00;65310.94;5064531;28;19921;-72
2023/01/07 09:05:41;;;;;;;;;;;;;;;-146.02;100.00;65310.94;5062569;28;19913;-72
2023/01/07 09:08:06;;;;;;;;;;;;;;;-146.02;100.00;65310.94;5047818;28;19918;-72
2023/01/07 09:10:31;;;;;;;;;;;;;;;-146.02;100.00;65310.94;5061723;28;19912;-72
2023/01/07 09:12:57;;;;;;;;;;;;;;;-146.02;100.00;65310.94;5063543;28;19920;-72
2023/01/07 09:15:22;;;;;;;;;;;;;;;-146.02;100.00;65310.94;5051431;28;20019;-72
2023/01/07 09:17:47;;;;;;;;;;;;;;;-146.02;100.00;65310.94;5061339;28;19929;-72
2023/01/07 09:20:13;;;;;;;;;;;;;;;-146.02;100.00;65310.94;5046063;28;20300;-72
2023/01/07 09:22:38;;;;;;;;;;;;;;;-146.02;100.00;65310.94;5063049;28;19935;-72
2023/01/07 09:25:04;;;;;;;;;;;;;;;-146.02;100.00;65310.94;5063028;28;19948;-72
2023/01/07 09:27:30;;;;;;;;;;;;;;;-146.02;100.00;65310.94;5046770;28;19936;-72
2023/01/07 09:29:57;;;;;;;;;;;;;;;-146.02;100.00;65310.94;5062644;28;19917;-72
2023/01/07 09:32:26;;;;;;;;;;;;;;;-146.02;100.00;65310.94;5065039;28;19944;-72
2023/01/07 09:34:51;;;;;;;;;;;;;;;-146.02;100.00;65310.94;5045942;28;19924;-72
2023/01/07 09:37:16;;;;;;;;;;;;;;;-146.02;100.00;65310.94;5061221;28;20274;-72
2023/01/07 09:39:42;;;;;;;;;;;;;;;-146.02;100.00;65310.94;5065152;28;19916;-72
2023/01/07 09:42:08;;;;;;;;;;;;;;;-146.02;100.00;65310.94;5062754;28;19994;-72
2023/01/07 09:44:39;;;;;;;;;;;;;;;-146.02;100.00;65310.94;5063404;28;20573;-72
2023/01/07 09:47:07;;;;;;;;;;;;;;;-146.02;100.00;65310.94;5061786;28;19912;-72
2023/01/07 09:49:32;;;;;;;;;;;;;;;-146.02;100.00;65310.94;5035013;28;19916;-72
2023/01/07 09:52:21;;;;;;;;;;;;;;;-146.02;100.00;65310.94;5069393;28;19923;-71
2023/01/07 09:54:51;;;;;;;;;;;;;;;-146.02;100.00;65310.94;5063601;28;20289;-71
2023/01/07 09:57:16;;;;;;;;;;;;;;;-146.02;100.00;65310.94;5070063;28;19920;-71
2023/01/07 09:59:42;;;;;;;;;;;;;;;-146.02;100.00;65310.94;5073258;28;20361;-72
2023/01/07 10:02:17;;;;;;;;;;;;;;;-146.02;100.00;65310.94;5072522;28;19912;-72
2023/01/07 10:04:56;;;;;;;;;;;;;;;-146.02;100.00;65310.94;5071023;28;19916;-72
2023/01/07 10:07:27;;;;;;;;;;;;;;;-146.02;100.00;65310.94;5072029;28;19913;-72
2023/01/07 10:09:52;;;;;;;;;;;;;;;-146.02;100.00;65310.94;5071516;28;19958;-72
2023/01/07 10:12:36;;;;;;;;;;;;;;;-146.02;100.00;65310.94;5071864;28;19996;-71
2023/01/07 10:15:14;;;;;;;;;;;;;;;-146.02;100.00;65310.94;5071682;28;20278;-72
2023/01/07 10:17:45;;;;;;;;;;;;;;;-146.02;100.00;65310.94;5052535;28;20074;-72
2023/01/07 10:20:29;;;;;;;;;;;;;;;-146.02;100.00;65310.94;5052531;28;19986;-72
2023/01/07 10:23:14;;;;;;;;;;;;;;;-146.02;100.00;65310.94;5066568;28;19912;-72
2023/01/07 10:25:43;;;;;;;;;;;;;;;-146.02;100.00;65310.94;5073719;28;20361;-73
2023/01/07 10:28:12;;;;;;;;;;;;;;;-146.02;100.00;65310.94;5072066;28;20003;-73
2023/01/07 10:30:42;;;;;;;;;;;;;;;-146.02;100.00;65310.94;5064575;28;19916;-73
2023/01/07 10:33:16;;;;;;;;;;;;;;;-146.02;100.00;65310.94;5033162;28;19918;-72
2023/01/07 10:35:41;;;;;;;;;;;;;;;-146.02;100.00;65310.94;5054613;28;19999;-72
2023/01/07 10:38:13;;;;;;;;;;;;;;;-146.02;100.00;65310.94;5052226;28;20015;-72
2023/01/07 10:40:42;;;;;;;;;;;;;;;-146.02;100.00;65310.94;5066484;28;19913;-72
2023/01/07 10:43:11;;;;;;;;;;;;;;;-146.02;100.00;65310.94;5066874;28;19920;-72
2023/01/07 10:45:43;;;;;;;;;;;;;;;-146.02;100.00;65310.94;5068267;28;19928;-72
2023/01/07 10:48:26;;;;;;;;;;;;;;;-146.02;100.00;65310.94;5069704;28;20308;-72
2023/01/07 10:50:58;;;;;;;;;;;;;;;-146.02;100.00;65310.94;5071141;28;20360;-73
2023/01/07 10:53:41;;;;;;;;;;;;;;;-146.02;100.00;65310.94;5069255;28;20383;-73
2023/01/07 10:56:27;;;;;;;;;;;;;;;-146.02;100.00;65310.94;5070667;28;19920;-73
2023/01/07 10:58:52;;;;;;;;;;;;;;;-146.02;100.00;65310.94;5069101;28;20373;-73
2023/01/07 11:01:26;;;;;;;;;;;;;;;-146.02;100.00;65310.94;5070748;28;19912;-73
2023/01/07 11:03:55;;;;;;;;;;;;;;;-146.02;100.00;65310.94;5067973;28;20284;-74
2023/01/07 11:06:40;;;;;;;;;;;;;;;-146.02;100.00;65310.94;5043765;28;19916;-73
2023/01/07 11:09:09;;;;;;;;;;;;;;;-146.02;100.00;65310.94;5037135;28;19925;-74
2023/01/07 11:11:35;;;;;;;;;;;;;;;-146.02;100.00;65310.94;5049038;28;20280;-74
2023/01/07 11:14:03;;;;;;;;;;;;;;;-146.02;100.00;65310.94;5062673;28;19920;-73
2023/01/07 11:16:30;;;;;;;;;;;;;;;-146.02;100.00;65310.94;5065205;28;19927;-73
2023/01/07 11:19:06;;;;;;;;;;;;;;;-146.02;100.00;65310.94;5046754;28;20351;-73
2023/01/07 11:21:32;;;;;;;;;;;;;;;-146.02;100.00;65310.94;5064726;28;19916;-74
2023/01/07 11:23:57;;;;;;;;;;;;;;;-146.02;100.00;65310.94;5035568;28;19916;-74
2023/01/07 11:26:27;;;;;;;;;;;;;;;-146.02;100.00;65310.94;5070980;28;20012;-73
2023/01/07 11:28:52;;;;;;;;;;;;;;;-146.02;100.00;65310.94;5065922;28;20438;-73
2023/01/07 11:31:18;;;;;;;;;;;;;;;-146.02;100.00;65310.94;5065890;28;19951;-73
2023/01/07 11:33:49;;;;;;;;;;;;;;;-146.02;100.00;65310.94;5066259;28;19913;-73
2023/01/07 11:36:15;;;;;;;;;;;;;;;-146.02;100.00;65310.94;5069361;28;19932;-73
2023/01/07 11:38:41;;;;;;;;;;;;;;;-146.02;100.00;65310.94;5046589;28;19920;-72
2023/01/07 11:41:18;;;;;;;;;;;;;;;-146.02;100.00;65310.94;5048853;28;19927;-73
2023/01/07 11:43:47;;;;;;;;;;;;;;;-146.02;100.00;65310.94;5048202;28;19925;-74
2023/01/07 11:46:13;;;;;;;;;;;;;;;-146.02;100.00;65310.94;5046341;28;19962;-73
2023/01/07 11:48:41;;;;;;;;;;;;;;;-146.02;100.00;65310.94;5066486;28;20303;-74
2023/01/07 11:51:09;;;;;;;;;;;;;;;-146.02;100.00;65310.94;5047689;28;19999;-75
2023/01/07 11:53:36;;;;;;;;;;;;;;;-146.02;100.00;65310.94;5054739;28;19916;-73
2023/01/07 11:56:06;;;;;;;;;;;;;;;-146.02;100.00;65310.94;5062958;28;19916;-75
2023/01/07 11:58:36;;;;;;;;;;;;;;;-146.02;100.00;65310.94;5047791;28;20323;-73
2023/01/07 12:01:08;;;;;;;;;;;;;;;-146.02;100.00;65310.94;5065462;28;19912;-73
2023/01/07 12:03:35;;;;;;;;;;;;;;;-146.02;100.00;65310.94;5063314;28;19913;-73
2023/01/07 12:06:22;;;;;;;;;;;;;;;-146.02;100.00;65310.94;5068208;28;19913;-77
2023/01/07 12:09:10;;;;;;;;;;;;;;;-146.02;100.00;65310.94;5063708;28;20010;-71
2023/01/07 12:11:38;;;;;;;;;;;;;;;-146.02;100.00;65310.94;5023188;28;19916;-70
2023/01/07 12:14:08;;;;;;;;;;;;;;;-146.02;100.00;65310.94;5065893;28;19959;-71
2023/01/07 12:16:34;;;;;;;;;;;;;;;-146.02;100.00;65310.94;5055674;28;20332;-71
2023/01/07 12:19:18;;;;;;;;;;;;;;;-146.02;100.00;65310.94;5072496;28;19935;-71
2023/01/07 12:21:57;;;;;;;;;;;;;;;-146.02;100.00;65310.94;5066894;28;19924;-72